createdAt,value
2022-10-04T00:00:11.353Z,102074.00
2022-10-04T00:02:46.755Z,102068.13
2022-10-04T00:05:19.984Z,102071.25
2022-10-04T00:07:53.566Z,102074.75
2022-10-04T00:10:26.806Z,102077.66
2022-10-04T00:13:01.758Z,102074.59
2022-10-04T00:15:34.494Z,102070.56
2022-10-04T00:18:07.895Z,102065.13
2022-10-04T00:21:13.552Z,102074.88
2022-10-04T00:23:49.786Z,102067.28
2022-10-04T00:26:58.573Z,102064.38
2022-10-04T00:29:37.064Z,102063.00
2022-10-04T00:32:28.383Z,102074.66
2022-10-04T00:34:58.913Z,102062.88
2022-10-04T00:37:28.719Z,102067.09
2022-10-04T00:40:17.833Z,102071.94
2022-10-04T00:42:57.458Z,102060.94
2022-10-04T00:45:35.882Z,102071.41
2022-10-04T00:48:32.679Z,102058.38
2022-10-04T00:51:10.325Z,102065.22
2022-10-04T00:53:48.802Z,102061.31
2022-10-04T00:56:25.344Z,102048.69
2022-10-04T00:59:27.872Z,102042.31
2022-10-04T01:02:01.453Z,102052.50
2022-10-04T01:04:41.327Z,102044.63
2022-10-04T01:07:14.075Z,102043.72
2022-10-04T01:09:51.166Z,102030.63
2022-10-04T01:12:34.101Z,102041.63
2022-10-04T01:15:08.463Z,102044.81
2022-10-04T01:17:39.033Z,102040.81
2022-10-04T01:20:31.013Z,102037.34
2022-10-04T01:23:01.333Z,102028.56
2022-10-04T01:25:48.304Z,102019.28
2022-10-04T01:28:17.924Z,102027.41
2022-10-04T01:30:47.121Z,102030.88
2022-10-04T01:33:16.189Z,102031.16
2022-10-04T01:35:45.159Z,102030.63
2022-10-04T01:38:15.799Z,102027.34
2022-10-04T01:40:50.053Z,102017.88
2022-10-04T01:43:24.837Z,102019.56
2022-10-04T01:45:59.536Z,102010.13
2022-10-04T01:48:34.256Z,102007.72
2022-10-04T01:51:09.298Z,102007.53
2022-10-04T01:53:48.740Z,102012.66
2022-10-04T01:56:21.415Z,102011.25
2022-10-04T01:58:53.633Z,102005.84
2022-10-04T02:01:28.508Z,102005.53
2022-10-04T02:04:01.977Z,102008.06
2022-10-04T02:06:36.350Z,102010.03
2022-10-04T02:09:11.588Z,102001.34
2022-10-04T02:11:42.309Z,101996.09
2022-10-04T02:14:17.099Z,101989.81
2022-10-04T02:16:52.284Z,101979.47
2022-10-04T02:19:24.717Z,101976.38
2022-10-04T02:21:54.713Z,101979.00
2022-10-04T02:24:25.313Z,101978.72
2022-10-04T02:26:55.225Z,101981.22
2022-10-04T02:29:24.512Z,101984.63
2022-10-04T02:32:11.472Z,101984.50
2022-10-04T02:34:41.658Z,101978.41
2022-10-04T02:37:10.974Z,101974.50
2022-10-04T02:39:45.342Z,101974.41
2022-10-04T02:42:21.670Z,101964.78
2022-10-04T02:44:58.040Z,101954.56
2022-10-04T02:47:32.891Z,101965.03
2022-10-04T02:50:07.002Z,101958.22
2022-10-04T02:52:43.274Z,101957.38
2022-10-04T02:55:21.263Z,101958.22
2022-10-04T02:57:52.355Z,101949.34
2022-10-04T03:00:24.533Z,101946.84
2022-10-04T03:03:16.538Z,101949.63
2022-10-04T03:05:48.405Z,101937.47
2022-10-04T03:08:17.449Z,101950.56
2022-10-04T03:10:49.060Z,101953.06
2022-10-04T03:13:21.353Z,101953.84
2022-10-04T03:15:51.413Z,101946.00
2022-10-04T03:18:21.637Z,101947.69
2022-10-04T03:20:51.178Z,101940.63
2022-10-04T03:23:22.154Z,101946.84
2022-10-04T03:26:00.780Z,101959.53
2022-10-04T03:28:30.939Z,101950.19
2022-10-04T03:31:00.745Z,101946.34
2022-10-04T03:33:30.945Z,101944.22
2022-10-04T03:36:02.300Z,101940.84
2022-10-04T03:38:35.841Z,101941.69
2022-10-04T03:41:07.316Z,101942.59
2022-10-04T03:43:43.495Z,101948.81
2022-10-04T03:46:14.318Z,101946.00
2022-10-04T03:48:51.099Z,101948.69
2022-10-04T03:51:22.901Z,101946.06
2022-10-04T03:53:54.428Z,101947.13
2022-10-04T03:56:28.429Z,101941.88
2022-10-04T03:58:58.232Z,101947.84
2022-10-04T04:01:41.626Z,101937.47
2022-10-04T04:04:23.060Z,101940.63
2022-10-04T04:07:03.097Z,101936.53
2022-10-04T04:09:40.128Z,101936.63
2022-10-04T04:12:19.143Z,101939.72
2022-10-04T04:14:51.863Z,101945.31
2022-10-04T04:17:36.837Z,101947.47
2022-10-04T04:20:14.558Z,101941.50
2022-10-04T04:22:47.297Z,101939.16
2022-10-04T04:25:18.926Z,101939.63
2022-10-04T04:27:51.121Z,101950.03
2022-10-04T04:30:20.466Z,101957.56
2022-10-04T04:32:53.609Z,101955.63
2022-10-04T04:35:25.672Z,101944.97
2022-10-04T04:38:06.491Z,101946.75
2022-10-04T04:40:37.724Z,101942.44
2022-10-04T04:43:13.583Z,101938.69
2022-10-04T04:45:43.033Z,101931.88
2022-10-04T04:48:17.598Z,101931.22
2022-10-04T04:50:53.959Z,101920.63
2022-10-04T04:53:27.185Z,101917.09
2022-10-04T04:56:04.662Z,101913.44
2022-10-04T04:58:38.641Z,101914.66
2022-10-04T05:01:17.839Z,101913.81
2022-10-04T05:04:00.188Z,101918.13
2022-10-04T05:06:31.393Z,101918.88
2022-10-04T05:09:00.481Z,101918.13
2022-10-04T05:11:32.038Z,101916.06
2022-10-04T05:14:06.776Z,101917.84
2022-10-04T05:16:41.568Z,101922.50
2022-10-04T05:19:16.289Z,101921.78
2022-10-04T05:21:48.127Z,101924.47
2022-10-04T05:24:24.740Z,101911.09
2022-10-04T05:26:56.098Z,101911.94
2022-10-04T05:29:29.116Z,101906.78
2022-10-04T05:32:06.484Z,101918.88
2022-10-04T05:34:40.952Z,101916.34
2022-10-04T05:37:31.564Z,101920.72
2022-10-04T05:40:16.901Z,101915.28
2022-10-04T05:42:47.517Z,101921.56
2022-10-04T05:45:21.360Z,101916.44
2022-10-04T05:47:53.591Z,101919.41
2022-10-04T05:50:29.801Z,101916.78
2022-10-04T05:53:20.743Z,101916.06
2022-10-04T05:55:59.465Z,101919.13
2022-10-04T05:58:48.317Z,101918.19
2022-10-04T06:01:38.468Z,101919.97
2022-10-04T06:04:28.098Z,101923.44
2022-10-04T06:07:03.653Z,101918.19
2022-10-04T06:10:02.791Z,101927.91
2022-10-04T06:12:46.079Z,101919.31
2022-10-04T06:15:44.288Z,101929.53
2022-10-04T06:18:38.451Z,101924.94
2022-10-04T06:21:23.118Z,101922.75
2022-10-04T06:23:59.298Z,101914.25
2022-10-04T06:26:34.894Z,101917.44
2022-10-04T06:29:07.599Z,101911.34
2022-10-04T06:32:09.429Z,101907.03
2022-10-04T06:35:16.030Z,101920.59
2022-10-04T06:38:06.543Z,101910.91
2022-10-04T06:40:54.188Z,101915.81
2022-10-04T06:43:40.778Z,101915.84
2022-10-04T06:46:17.228Z,101912.34
2022-10-04T06:49:23.695Z,101912.50
2022-10-04T06:52:32.987Z,101902.56
2022-10-04T06:55:28.351Z,101913.69
2022-10-04T06:58:18.282Z,101911.94
2022-10-04T07:00:55.210Z,101914.13
2022-10-04T07:03:29.768Z,101915.81
2022-10-04T07:06:03.100Z,101911.25
2022-10-04T07:08:40.657Z,101913.56
2022-10-04T07:11:16.422Z,101922.38
2022-10-04T07:13:52.289Z,101920.44
2022-10-04T07:16:39.160Z,101918.44
2022-10-04T07:19:26.283Z,101917.81
2022-10-04T07:22:02.110Z,101927.91
2022-10-04T07:24:47.736Z,101923.91
2022-10-04T07:27:21.984Z,101924.31
2022-10-04T07:29:54.973Z,101928.31
2022-10-04T07:32:27.753Z,101931.78
2022-10-04T07:35:03.059Z,101932.28
2022-10-04T07:37:36.146Z,101922.09
2022-10-04T07:40:19.471Z,101932.16
2022-10-04T07:42:52.959Z,101932.50
2022-10-04T07:45:29.889Z,101932.69
2022-10-04T07:48:06.174Z,101932.47
2022-10-04T07:50:41.417Z,101933.94
2022-10-04T07:53:15.933Z,101931.19
2022-10-04T07:55:56.314Z,101933.34
2022-10-04T07:58:45.540Z,101931.34
2022-10-04T08:01:27.860Z,101936.50
2022-10-04T08:04:15.140Z,101934.38
2022-10-04T08:06:59.112Z,101931.03
2022-10-04T08:09:50.738Z,101933.72
2022-10-04T08:12:26.162Z,101927.28
2022-10-04T08:14:57.921Z,101932.59
2022-10-04T08:17:41.656Z,101931.16
2022-10-04T08:20:33.346Z,101921.13
2022-10-04T08:23:14.071Z,101921.00
2022-10-04T08:25:52.326Z,101926.88
2022-10-04T08:28:51.731Z,101926.53
2022-10-04T08:31:38.854Z,101913.03
2022-10-04T08:34:29.384Z,101928.84
2022-10-04T08:37:09.611Z,101924.56
2022-10-04T08:39:56.851Z,101917.41
2022-10-04T08:43:04.201Z,101915.38
2022-10-04T08:45:55.458Z,101916.69
2022-10-04T08:49:01.783Z,101917.75
2022-10-04T08:52:03.607Z,101925.78
2022-10-04T08:55:12.940Z,101921.50
2022-10-04T08:58:30.184Z,101921.84
2022-10-04T09:01:22.117Z,101922.56
2022-10-04T09:04:24.647Z,101920.25
2022-10-04T09:07:09.532Z,101921.94
2022-10-04T09:10:14.801Z,101920.19
2022-10-04T09:13:05.564Z,101921.78
2022-10-04T09:15:51.834Z,101914.34
2022-10-04T09:18:47.285Z,101906.94
2022-10-04T09:21:27.981Z,101910.81
2022-10-04T09:24:33.998Z,101913.72
2022-10-04T09:27:31.467Z,101912.75
2022-10-04T09:30:16.376Z,101902.69
2022-10-04T09:33:05.364Z,101897.97
2022-10-04T09:35:56.374Z,101890.97
2022-10-04T09:39:32.250Z,101891.53
2022-10-04T09:42:35.901Z,101893.81
2022-10-04T09:45:31.921Z,101890.16
2022-10-04T09:48:25.019Z,101898.38
2022-10-04T09:51:23.214Z,101906.53
2022-10-04T09:54:13.078Z,101910.25
2022-10-04T09:57:15.893Z,101899.19
2022-10-04T10:00:09.010Z,101900.97
2022-10-04T10:03:31.562Z,101904.75
2022-10-04T10:06:23.558Z,101908.59
2022-10-04T10:09:11.182Z,101901.03
2022-10-04T10:12:12.006Z,101905.81
2022-10-04T10:15:12.827Z,101903.34
2022-10-04T10:17:47.699Z,101900.97
2022-10-04T10:20:48.346Z,101907.41
2022-10-04T10:23:46.624Z,101899.69
2022-10-04T10:26:49.605Z,101891.22
2022-10-04T10:29:49.517Z,101884.25
2022-10-04T10:32:45.904Z,101875.41
2022-10-04T10:35:43.250Z,101871.44
2022-10-04T10:38:32.119Z,101886.06
2022-10-04T10:41:40.530Z,101887.38
2022-10-04T10:44:23.559Z,101879.19
2022-10-04T10:47:06.314Z,101871.16
2022-10-04T10:49:48.546Z,101874.31
2022-10-04T10:52:54.615Z,101863.22
2022-10-04T10:55:56.447Z,101862.16
2022-10-04T10:59:12.319Z,101866.69
2022-10-04T11:02:20.043Z,101858.59
2022-10-04T11:05:10.032Z,101863.03
2022-10-04T11:07:52.229Z,101855.34
2022-10-04T11:11:03.645Z,101856.59
2022-10-04T11:13:59.917Z,101861.53
2022-10-04T11:16:56.714Z,101855.41
2022-10-04T11:19:53.023Z,101851.59
2022-10-04T11:22:50.985Z,101841.34
2022-10-04T11:25:57.265Z,101843.25
2022-10-04T11:28:37.033Z,101840.19
2022-10-04T11:31:34.033Z,101846.56
2022-10-04T11:34:51.317Z,101835.50
2022-10-04T11:37:32.298Z,101827.69
2022-10-04T11:40:17.947Z,101829.72
2022-10-04T11:43:07.916Z,101830.22
2022-10-04T11:45:57.062Z,101818.91
2022-10-04T11:48:43.512Z,101805.94
2022-10-04T11:52:02.063Z,101803.41
2022-10-04T11:54:49.553Z,101800.50
2022-10-04T11:57:32.966Z,101799.25
2022-10-04T12:00:11.277Z,101801.66
2022-10-04T12:03:09.438Z,101812.56
2022-10-04T12:06:10.275Z,101796.97
2022-10-04T12:08:52.151Z,101794.81
2022-10-04T12:12:05.879Z,101792.47
2022-10-04T12:14:45.421Z,101781.09
2022-10-04T12:18:05.154Z,101775.13
2022-10-04T12:20:44.354Z,101775.28
2022-10-04T12:23:46.577Z,101769.63
2022-10-04T12:26:41.448Z,101773.22
2022-10-04T12:29:30.254Z,101766.47
2022-10-04T12:32:07.871Z,101762.81
2022-10-04T12:34:48.571Z,101756.25
2022-10-04T12:37:29.337Z,101753.66
2022-10-04T12:40:25.326Z,101749.81
2022-10-04T12:43:03.076Z,101747.94
2022-10-04T12:45:52.454Z,101740.66
2022-10-04T12:48:32.805Z,101740.06
2022-10-04T12:51:15.965Z,101737.59
2022-10-04T12:53:55.560Z,101734.19
2022-10-04T12:56:43.079Z,101735.78
2022-10-04T12:59:27.831Z,101736.72
2022-10-04T13:02:09.189Z,101732.25
2022-10-04T13:04:43.247Z,101728.94
2022-10-04T13:07:43.338Z,101731.97
2022-10-04T13:10:34.137Z,101734.22
2022-10-04T13:13:23.115Z,101731.97
2022-10-04T13:18:56.147Z,101744.75
2022-10-04T13:22:02.628Z,101746.66
2022-10-04T13:24:54.553Z,101727.56
2022-10-04T13:27:34.958Z,101731.94
2022-10-04T13:30:16.562Z,101719.22
2022-10-04T13:32:53.135Z,101720.81
2022-10-04T13:35:30.946Z,101715.59
2022-10-04T13:38:28.356Z,101720.72
2022-10-04T13:41:18.906Z,101708.16
2022-10-04T13:44:26.203Z,101693.59
2022-10-04T13:47:27.689Z,101680.94
2022-10-04T13:50:13.414Z,101675.63
2022-10-04T13:53:10.234Z,101669.47
2022-10-04T13:56:04.280Z,101659.94
2022-10-04T13:58:45.932Z,101658.09
2022-10-04T14:01:39.267Z,101663.78
2022-10-04T14:04:37.475Z,101661.13
2022-10-04T14:07:51.370Z,101666.25
2022-10-04T14:10:48.743Z,101667.91
2022-10-04T14:13:48.788Z,101664.91
2022-10-04T14:16:49.544Z,101646.91
2022-10-04T14:19:49.114Z,101646.69
2022-10-04T14:22:44.546Z,101643.84
2022-10-04T14:25:41.400Z,101643.03
2022-10-04T14:28:43.605Z,101622.09
2022-10-04T14:31:42.189Z,101623.41
2022-10-04T14:34:57.115Z,101631.00
2022-10-04T14:38:09.688Z,101635.41
2022-10-04T14:41:12.218Z,101623.38
2022-10-04T14:44:01.065Z,101623.06
2022-10-04T14:46:46.355Z,101626.22
2022-10-04T14:49:25.013Z,101638.19
2022-10-04T14:52:19.736Z,101630.22
2022-10-04T14:54:54.179Z,101632.81
2022-10-04T14:57:46.438Z,101639.16
2022-10-04T15:00:20.725Z,101642.31
2022-10-04T15:03:11.238Z,101634.03
2022-10-04T15:06:00.293Z,101651.16
2022-10-04T15:09:06.192Z,101637.69
2022-10-04T15:12:21.611Z,101639.94
2022-10-04T15:15:01.982Z,101632.13
2022-10-04T15:17:37.773Z,101626.22
2022-10-04T15:20:20.005Z,101638.94
2022-10-04T15:22:53.929Z,101643.31
2022-10-04T15:25:41.182Z,101640.44
2022-10-04T15:28:44.129Z,101631.88
2022-10-04T15:31:20.625Z,101642.78
2022-10-04T15:34:06.383Z,101646.56
2022-10-04T15:36:48.199Z,101649.94
2022-10-04T15:40:05.207Z,101639.50
2022-10-04T15:42:36.855Z,101642.16
2022-10-04T15:45:36.242Z,101629.53
2022-10-04T15:48:33.016Z,101629.84
2022-10-04T15:51:11.170Z,101616.19
2022-10-04T15:54:15.184Z,101609.84
2022-10-04T15:56:52.223Z,101604.75
2022-10-04T15:59:43.139Z,101598.69
2022-10-04T16:02:48.724Z,101592.28
2022-10-04T16:05:26.308Z,101586.91
2022-10-04T16:08:26.259Z,101588.69
2022-10-04T16:11:26.909Z,101597.75
2022-10-04T16:14:28.824Z,101590.53
2022-10-04T16:17:31.428Z,101586.22
2022-10-04T16:20:35.513Z,101593.47
2022-10-04T16:23:32.366Z,101594.31
2022-10-04T16:26:04.897Z,101590.28
2022-10-04T16:29:00.630Z,101594.31
2022-10-04T16:31:44.958Z,101594.47
2022-10-04T16:34:28.030Z,101592.75
2022-10-04T16:37:02.429Z,101585.56
2022-10-04T16:39:55.692Z,101593.59
2022-10-04T16:42:29.370Z,101595.03
2022-10-04T16:45:03.089Z,101599.88
2022-10-04T16:47:37.206Z,101600.25
2022-10-04T16:50:10.577Z,101596.34
2022-10-04T16:52:50.590Z,101589.94
2022-10-04T16:55:32.203Z,101591.56
2022-10-04T16:58:41.355Z,101596.53
2022-10-04T17:01:55.071Z,101586.50
2022-10-04T17:04:55.409Z,101597.97
2022-10-04T17:07:33.745Z,101593.94
2022-10-04T17:10:19.998Z,101589.88
2022-10-04T17:12:57.218Z,101584.44
2022-10-04T17:15:49.521Z,101577.44
2022-10-04T17:18:27.974Z,101572.47
2022-10-04T17:21:01.106Z,101577.00
2022-10-04T17:23:48.922Z,101597.22
2022-10-04T17:26:31.175Z,101595.81
2022-10-04T17:29:09.463Z,101593.75
2022-10-04T17:31:52.044Z,101597.88
2022-10-04T17:34:33.333Z,101604.63
2022-10-04T17:37:13.758Z,101600.03
2022-10-04T17:39:48.937Z,101603.81
2022-10-04T17:42:27.831Z,101608.63
2022-10-04T17:45:43.503Z,101608.50
2022-10-04T17:48:34.455Z,101606.44
2022-10-04T17:51:28.448Z,101590.28
2022-10-04T17:54:22.304Z,101589.97
2022-10-04T17:57:11.448Z,101600.13
2022-10-04T17:59:45.058Z,101591.41
2022-10-04T18:02:21.730Z,101591.13
2022-10-04T18:04:56.689Z,101592.94
2022-10-04T18:07:29.569Z,101594.66
2022-10-04T18:10:11.208Z,101598.44
2022-10-04T18:12:47.575Z,101592.41
2022-10-04T18:15:25.863Z,101602.56
2022-10-04T18:18:13.088Z,101604.88
2022-10-04T18:21:07.797Z,101603.66
2022-10-04T18:23:39.436Z,101609.16
2022-10-04T18:26:17.493Z,101608.13
2022-10-04T18:28:47.442Z,101594.41
2022-10-04T18:31:33.083Z,101607.25
2022-10-04T18:34:17.336Z,101598.78
2022-10-04T18:36:55.083Z,101575.38
2022-10-04T18:39:25.270Z,101580.41
2022-10-04T18:42:15.161Z,101584.81
2022-10-04T18:44:48.019Z,101568.81
2022-10-04T18:47:28.956Z,101571.69
2022-10-04T18:50:03.986Z,101554.13
2022-10-04T18:52:43.933Z,101547.91
2022-10-04T18:55:27.132Z,101542.16
2022-10-04T18:58:23.665Z,101550.25
2022-10-04T19:01:19.102Z,101550.00
2022-10-04T19:03:57.854Z,101553.13
2022-10-04T19:06:31.134Z,101562.19
2022-10-04T19:09:11.799Z,101573.22
2022-10-04T19:11:45.420Z,101584.56
2022-10-04T19:14:26.558Z,101603.59
2022-10-04T19:17:01.491Z,101615.66
2022-10-04T19:19:42.778Z,101626.78
2022-10-04T19:22:30.711Z,101625.34
2022-10-04T19:25:24.593Z,101618.91
2022-10-04T19:28:03.716Z,101599.66
2022-10-04T19:30:53.007Z,101597.72
2022-10-04T19:33:34.370Z,101579.56
2022-10-04T19:36:31.247Z,101575.75
2022-10-04T19:39:19.782Z,101577.13
2022-10-04T19:41:56.746Z,101579.06
2022-10-04T19:44:36.400Z,101580.00
2022-10-04T19:47:21.395Z,101578.94
2022-10-04T19:49:58.669Z,101574.63
2022-10-04T19:52:37.705Z,101578.81
2022-10-04T19:55:21.336Z,101591.84
2022-10-04T19:57:56.287Z,101581.19
2022-10-04T20:00:25.288Z,101590.41
2022-10-04T20:02:54.257Z,101590.63
2022-10-04T20:05:25.554Z,101595.50
2022-10-04T20:08:01.556Z,101592.28
2022-10-04T20:10:34.541Z,101589.88
2022-10-04T20:13:20.982Z,101581.34
2022-10-04T20:15:59.806Z,101581.22
2022-10-04T20:19:09.632Z,101589.88
2022-10-04T20:21:38.823Z,101584.75
2022-10-04T20:24:17.802Z,101579.09
2022-10-04T20:26:54.796Z,101576.88
2022-10-04T20:30:06.910Z,101576.75
2022-10-04T20:32:58.432Z,101585.69
2022-10-04T20:36:06.232Z,101585.03
2022-10-04T20:38:46.905Z,101586.56
2022-10-04T20:42:11.556Z,101581.66
2022-10-04T20:44:57.215Z,101567.22
2022-10-04T20:47:44.082Z,101559.22
2022-10-04T20:50:39.525Z,101565.28
2022-10-04T20:53:16.449Z,101571.50
2022-10-04T20:55:46.067Z,101563.16
2022-10-04T20:58:32.525Z,101562.88
2022-10-04T21:01:16.451Z,101557.38
2022-10-04T21:03:45.534Z,101541.19
2022-10-04T21:06:14.658Z,101542.38
2022-10-04T21:08:45.021Z,101544.53
2022-10-04T21:11:20.480Z,101536.75
2022-10-04T21:13:53.038Z,101532.81
2022-10-04T21:16:43.395Z,101527.44
2022-10-04T21:19:44.059Z,101541.91
2022-10-04T21:22:34.157Z,101535.75
2022-10-04T21:25:05.957Z,101549.50
2022-10-04T21:27:36.864Z,101545.63
2022-10-04T21:30:08.517Z,101553.75
2022-10-04T21:32:39.145Z,101560.31
2022-10-04T21:35:09.469Z,101561.75
2022-10-04T21:37:38.470Z,101573.81
2022-10-04T21:40:09.254Z,101573.81
2022-10-04T21:42:38.338Z,101571.19
2022-10-04T21:45:08.182Z,101568.94
2022-10-04T21:47:38.565Z,101566.97
2022-10-04T21:50:08.167Z,101569.00
2022-10-04T21:52:37.108Z,101562.16
2022-10-04T21:55:10.353Z,101560.97
2022-10-04T21:57:39.389Z,101554.16
2022-10-04T22:00:09.803Z,101549.34
2022-10-04T22:02:43.160Z,101557.44
2022-10-04T22:05:12.166Z,101554.22
2022-10-04T22:07:41.118Z,101549.72
2022-10-04T22:10:10.532Z,101556.94
2022-10-04T22:12:39.564Z,101554.84
2022-10-04T22:15:09.926Z,101544.34
2022-10-04T22:17:38.988Z,101544.59
2022-10-04T22:20:10.340Z,101537.59
2022-10-04T22:22:40.017Z,101535.13
2022-10-04T22:25:15.997Z,101541.97
2022-10-04T22:27:45.883Z,101530.41
2022-10-04T22:30:22.842Z,101527.31
2022-10-04T22:32:52.341Z,101523.16
2022-10-04T22:35:23.138Z,101521.25
2022-10-04T22:37:52.707Z,101517.28
2022-10-04T22:40:23.870Z,101515.72
2022-10-04T22:42:55.043Z,101514.88
2022-10-04T22:45:26.381Z,101520.47
2022-10-04T22:47:57.961Z,101506.38
2022-10-04T22:50:33.008Z,101502.50
2022-10-04T22:53:05.861Z,101503.91
2022-10-04T22:55:36.344Z,101499.00
2022-10-04T22:58:05.617Z,101495.53
2022-10-04T23:00:34.540Z,101500.44
2022-10-04T23:03:03.853Z,101490.63
2022-10-04T23:05:34.188Z,101496.16
2022-10-04T23:08:03.150Z,101491.25
2022-10-04T23:10:32.198Z,101484.69
2022-10-04T23:13:01.144Z,101493.22
2022-10-04T23:15:30.065Z,101496.78
2022-10-04T23:17:59.064Z,101482.97
2022-10-04T23:20:30.333Z,101490.34
2022-10-04T23:23:01.537Z,101493.56
2022-10-04T23:25:31.404Z,101489.84
2022-10-04T23:28:06.385Z,101488.41
2022-10-04T23:30:35.476Z,101480.97
2022-10-04T23:33:14.461Z,101477.38
2022-10-04T23:35:43.546Z,101466.34
2022-10-04T23:38:17.345Z,101470.41
2022-10-04T23:40:46.479Z,101474.69
2022-10-04T23:43:21.026Z,101468.75
2022-10-04T23:45:50.096Z,101458.50
2022-10-04T23:48:23.365Z,101455.59
2022-10-04T23:50:53.642Z,101451.63
2022-10-04T23:53:27.790Z,101457.44
2022-10-04T23:55:57.884Z,101458.63
2022-10-04T23:58:32.201Z,101458.22
